createdAt,value
2022-10-18T00:00:56.568Z,11.10
2022-10-18T00:03:23.873Z,10.65
2022-10-18T00:05:51.473Z,11.15
2022-10-18T00:08:24.599Z,10.27
2022-10-18T00:10:51.571Z,10.63
2022-10-18T00:13:23.001Z,9.82
2022-10-18T00:15:58.323Z,10.63
2022-10-18T00:18:25.617Z,10.68
2022-10-18T00:21:09.708Z,10.05
2022-10-18T00:23:36.989Z,10.20
2022-10-18T00:26:24.178Z,10.63
2022-10-18T00:28:55.548Z,11.50
2022-10-18T00:31:35.766Z,11.60
2022-10-18T00:34:10.624Z,10.32
2022-10-18T00:36:37.981Z,10.93
2022-10-18T00:39:07.075Z,11.38
2022-10-18T00:41:36.504Z,10.48
2022-10-18T00:44:26.895Z,11.32
2022-10-18T00:47:00.551Z,9.70
2022-10-18T00:49:39.912Z,10.75
2022-10-18T00:52:15.465Z,10.60
2022-10-18T00:54:44.847Z,10.43
2022-10-18T00:57:12.852Z,10.45
2022-10-18T00:59:41.372Z,10.45
2022-10-18T01:02:08.931Z,10.10
2022-10-18T01:04:36.432Z,10.00
2022-10-18T01:07:27.305Z,9.75
2022-10-18T01:10:27.296Z,10.02
2022-10-18T01:13:51.337Z,9.43
2022-10-18T01:16:38.428Z,10.05
2022-10-18T01:24:54.846Z,6.85
2022-10-18T01:27:49.169Z,7.38
2022-10-18T01:30:32.801Z,6.63
2022-10-18T01:33:25.654Z,6.18
2022-10-18T01:36:15.659Z,6.47
2022-10-18T01:38:44.189Z,5.88
2022-10-18T01:41:15.721Z,6.45
2022-10-18T01:43:45.498Z,6.50
2022-10-18T01:46:18.396Z,5.65
2022-10-18T01:48:46.099Z,6.43
2022-10-18T01:51:12.899Z,6.40
2022-10-18T01:53:40.334Z,6.63
2022-10-18T01:56:34.133Z,6.35
2022-10-18T01:59:34.864Z,6.22
2022-10-18T02:02:44.304Z,6.40
2022-10-18T02:05:46.577Z,6.75
2022-10-18T02:08:42.962Z,6.32
2022-10-18T02:11:13.797Z,6.40
2022-10-18T02:14:13.259Z,7.50
2022-10-18T02:16:49.997Z,6.18
2022-10-18T02:19:41.151Z,7.28
2022-10-18T02:22:11.210Z,6.78
2022-10-18T02:24:45.023Z,7.05
2022-10-18T02:27:12.458Z,7.60
2022-10-18T02:29:41.064Z,7.43
2022-10-18T02:32:30.920Z,7.07
2022-10-18T02:35:20.563Z,6.88
2022-10-18T02:37:49.286Z,7.60
2022-10-18T02:40:20.290Z,6.68
2022-10-18T02:42:55.619Z,6.90
2022-10-18T02:48:14.600Z,6.90
2022-10-18T02:50:41.535Z,6.75
2022-10-18T02:53:08.620Z,6.53
2022-10-18T02:55:35.620Z,6.97
2022-10-18T02:58:02.532Z,6.82
2022-10-18T03:00:29.349Z,7.65
2022-10-18T03:02:56.760Z,6.65
2022-10-18T03:05:23.628Z,7.65
2022-10-18T03:07:51.115Z,7.30
2022-10-18T03:10:17.984Z,7.28
2022-10-18T03:12:44.895Z,6.40
2022-10-18T03:15:12.027Z,7.40
2022-10-18T03:17:38.894Z,6.68
2022-10-18T03:20:06.594Z,6.55
2022-10-18T03:22:39.682Z,6.40
2022-10-18T03:25:09.654Z,7.05
2022-10-18T03:30:27.860Z,6.35
2022-10-18T03:32:54.777Z,6.82
2022-10-18T03:35:22.425Z,7.05
2022-10-18T03:37:49.642Z,7.57
2022-10-18T03:40:17.106Z,7.68
2022-10-18T03:42:44.261Z,7.07
2022-10-18T03:45:11.288Z,7.70
2022-10-18T03:47:38.235Z,7.63
2022-10-18T03:50:05.933Z,7.65
2022-10-18T03:52:33.626Z,7.13
2022-10-18T03:55:00.829Z,7.22
2022-10-18T03:57:27.793Z,7.38
2022-10-18T03:59:54.715Z,7.78
2022-10-18T04:02:21.669Z,7.95
2022-10-18T04:04:49.445Z,7.45
2022-10-18T04:07:16.333Z,7.68
2022-10-18T04:09:43.211Z,7.32
2022-10-18T04:12:10.142Z,7.90
2022-10-18T04:14:37.192Z,7.43
2022-10-18T04:17:05.156Z,6.97
2022-10-18T04:19:32.077Z,7.18
2022-10-18T04:21:59.354Z,7.15
2022-10-18T04:24:26.381Z,7.22
2022-10-18T04:26:53.475Z,7.13
2022-10-18T04:29:20.332Z,7.28
2022-10-18T04:31:47.225Z,7.55
2022-10-18T04:34:14.412Z,7.72
2022-10-18T04:36:41.292Z,7.38
2022-10-18T04:39:08.147Z,7.47
2022-10-18T04:41:35.339Z,7.85
2022-10-18T04:44:02.190Z,6.93
2022-10-18T04:46:29.227Z,7.65
2022-10-18T04:48:56.182Z,8.57
2022-10-18T04:51:23.144Z,8.00
2022-10-18T04:53:50.167Z,7.65
2022-10-18T04:56:17.031Z,7.15
2022-10-18T04:58:43.824Z,7.40
2022-10-18T05:01:11.126Z,7.63
2022-10-18T05:03:38.135Z,7.25
2022-10-18T05:06:05.807Z,6.70
2022-10-18T05:08:35.286Z,5.93
2022-10-18T05:11:03.748Z,5.60
2022-10-18T05:16:21.853Z,5.03
2022-10-18T05:18:48.879Z,5.03
2022-10-18T05:21:16.767Z,5.25
2022-10-18T05:23:43.629Z,5.28
2022-10-18T05:26:11.285Z,5.35
2022-10-18T05:28:40.243Z,5.05
2022-10-18T05:31:09.833Z,5.53
2022-10-18T05:33:36.918Z,4.85
2022-10-18T05:36:04.336Z,5.18
2022-10-18T05:38:31.451Z,5.30
2022-10-18T05:40:59.474Z,5.28
2022-10-18T05:43:29.802Z,5.70
2022-10-18T05:45:57.073Z,5.93
2022-10-18T05:48:24.678Z,5.95
2022-10-18T05:50:51.769Z,6.28
2022-10-18T05:53:35.618Z,5.90
2022-10-18T05:56:05.504Z,5.43
2022-10-18T05:58:32.470Z,5.65
2022-10-18T06:01:04.753Z,5.80
2022-10-18T06:03:32.678Z,5.53
2022-10-18T06:06:00.944Z,6.65
2022-10-18T06:08:27.908Z,6.38
2022-10-18T06:10:54.730Z,6.65
2022-10-18T06:13:21.911Z,7.60
2022-10-18T06:15:49.073Z,10.23
2022-10-18T06:18:16.457Z,9.40
2022-10-18T06:20:43.242Z,8.95
2022-10-18T06:23:10.204Z,6.20
2022-10-18T06:25:37.119Z,6.82
2022-10-18T06:28:10.137Z,7.40
2022-10-18T06:30:39.028Z,7.60
2022-10-18T06:33:05.974Z,7.60
2022-10-18T06:35:33.899Z,7.50
2022-10-18T06:38:00.989Z,7.30
2022-10-18T06:40:27.769Z,8.15
2022-10-18T06:43:00.515Z,7.90
2022-10-18T06:45:37.437Z,7.35
2022-10-18T06:48:04.618Z,7.82
2022-10-18T06:50:31.815Z,7.32
2022-10-18T06:52:58.993Z,8.38
2022-10-18T06:55:26.021Z,8.43
2022-10-18T06:57:53.587Z,8.10
2022-10-18T07:00:20.506Z,7.50
2022-10-18T07:02:47.564Z,7.90
2022-10-18T07:05:14.414Z,8.13
2022-10-18T07:07:41.314Z,9.30
2022-10-18T07:10:12.622Z,8.38
2022-10-18T07:12:39.732Z,8.68
2022-10-18T07:15:09.542Z,8.77
2022-10-18T07:17:37.069Z,7.93
2022-10-18T07:20:04.287Z,8.50
2022-10-18T07:22:31.301Z,8.30
2022-10-18T07:24:58.119Z,8.13
2022-10-18T07:27:25.171Z,8.20
2022-10-18T07:29:52.294Z,8.65
2022-10-18T07:32:19.488Z,8.82
2022-10-18T07:34:46.574Z,9.35
2022-10-18T07:37:13.522Z,9.07
2022-10-18T07:39:40.643Z,10.27
2022-10-18T07:42:07.652Z,9.43
2022-10-18T07:44:34.639Z,10.07
2022-10-18T07:47:01.776Z,12.40
2022-10-18T07:49:28.918Z,9.85
2022-10-18T07:51:55.893Z,10.32
2022-10-18T07:54:22.910Z,9.70
2022-10-18T07:56:49.765Z,10.02
2022-10-18T07:59:16.778Z,10.25
2022-10-18T08:01:43.900Z,9.02
2022-10-18T08:04:16.074Z,9.48
2022-10-18T08:06:43.545Z,9.73
2022-10-18T08:09:10.554Z,9.48
2022-10-18T08:11:37.425Z,9.52
2022-10-18T08:14:04.449Z,10.35
2022-10-18T08:18:59.790Z,10.27
2022-10-18T08:21:27.409Z,10.18
2022-10-18T08:23:54.407Z,10.10
2022-10-18T08:26:23.322Z,9.63
2022-10-18T08:29:03.641Z,9.70
2022-10-18T08:31:38.145Z,9.23
2022-10-18T08:34:05.202Z,10.30
2022-10-18T08:36:32.229Z,10.57
2022-10-18T08:38:59.411Z,10.20
2022-10-18T08:41:39.012Z,10.93
2022-10-18T08:44:19.768Z,10.27
2022-10-18T08:46:51.356Z,10.65
2022-10-18T08:49:47.135Z,10.23
2022-10-18T08:52:41.700Z,10.10
2022-10-18T08:55:36.484Z,9.52
2022-10-18T08:58:15.120Z,8.95
2022-10-18T09:00:58.679Z,9.00
2022-10-18T09:04:13.430Z,9.65
2022-10-18T09:07:08.139Z,8.95
2022-10-18T09:10:33.802Z,9.35
2022-10-18T09:13:41.250Z,7.53
2022-10-18T09:16:22.366Z,5.73
2022-10-18T09:19:30.933Z,5.75
2022-10-18T09:22:17.624Z,5.32
2022-10-18T09:25:22.888Z,5.95
2022-10-18T09:27:55.153Z,5.97
2022-10-18T09:31:09.621Z,7.03
2022-10-18T09:33:53.659Z,5.38
2022-10-18T09:36:30.490Z,5.93
2022-10-18T09:39:03.780Z,5.47
2022-10-18T09:41:53.772Z,6.28
2022-10-18T09:44:30.606Z,6.40
2022-10-18T09:47:13.411Z,6.05
2022-10-18T09:49:48.012Z,6.25
2022-10-18T09:52:39.903Z,5.30
2022-10-18T09:55:20.686Z,5.53
2022-10-18T09:57:53.635Z,5.20
2022-10-18T10:00:31.730Z,5.32
2022-10-18T10:03:01.914Z,5.40
2022-10-18T10:05:28.927Z,5.85
2022-10-18T10:08:02.038Z,5.80
2022-10-18T10:10:31.651Z,5.60
2022-10-18T10:13:26.332Z,6.28
2022-10-18T10:16:03.676Z,6.05
2022-10-18T10:18:40.312Z,5.90
2022-10-18T10:24:07.167Z,5.85
2022-10-18T10:26:36.549Z,6.47
2022-10-18T10:29:04.408Z,5.80
2022-10-18T10:31:33.807Z,5.68
2022-10-18T10:34:14.725Z,6.50
2022-10-18T10:36:51.371Z,6.90
2022-10-18T10:39:20.885Z,6.38
2022-10-18T10:41:50.783Z,6.47
2022-10-18T10:44:24.470Z,7.65
2022-10-18T10:46:52.572Z,6.25
2022-10-18T10:49:44.086Z,6.20
2022-10-18T10:52:28.613Z,6.95
2022-10-18T10:57:48.149Z,7.93
2022-10-18T11:00:33.862Z,7.28
2022-10-18T11:03:28.005Z,7.53
2022-10-18T11:05:57.840Z,8.30
2022-10-18T11:08:30.414Z,7.63
2022-10-18T11:11:27.697Z,6.90
2022-10-18T11:14:24.566Z,8.32
2022-10-18T11:17:12.171Z,7.60
2022-10-18T11:20:06.875Z,7.22
2022-10-18T11:22:41.526Z,7.15
2022-10-18T11:25:15.988Z,7.28
2022-10-18T11:28:49.912Z,7.30
2022-10-18T11:32:00.548Z,7.78
2022-10-18T11:38:45.937Z,8.05
2022-10-18T11:41:36.556Z,7.85
2022-10-18T11:44:21.217Z,7.72
2022-10-18T11:47:08.292Z,8.98
2022-10-18T11:50:12.822Z,7.60
2022-10-18T11:52:50.075Z,8.15
2022-10-18T11:55:47.261Z,6.90
2022-10-18T11:58:48.961Z,7.53
2022-10-18T12:01:38.556Z,6.85
2022-10-18T12:04:17.855Z,6.83
2022-10-18T12:06:49.015Z,7.97
2022-10-18T12:09:27.920Z,7.45
2022-10-18T12:12:06.648Z,6.70
2022-10-18T12:14:40.817Z,6.75
2022-10-18T12:17:42.071Z,5.85
2022-10-18T12:20:36.073Z,6.32
2022-10-18T12:23:13.561Z,6.68
2022-10-18T12:25:46.010Z,6.43
2022-10-18T12:29:16.807Z,7.47
2022-10-18T12:31:50.435Z,6.57
2022-10-18T12:34:23.598Z,6.30
2022-10-18T12:37:21.565Z,6.78
2022-10-18T12:40:18.501Z,7.05
2022-10-18T12:42:50.727Z,6.72
2022-10-18T12:45:35.253Z,6.60
2022-10-18T12:48:27.985Z,6.95
2022-10-18T12:51:04.863Z,6.95
2022-10-18T12:53:33.544Z,7.50
2022-10-18T12:56:28.339Z,7.40
2022-10-18T12:59:17.096Z,7.38
2022-10-18T13:01:53.518Z,6.07
2022-10-18T13:07:11.923Z,6.47
2022-10-18T13:10:16.387Z,6.60
2022-10-18T13:13:39.228Z,6.60
2022-10-18T13:16:38.207Z,6.05
2022-10-18T13:19:20.821Z,5.95
2022-10-18T13:21:59.005Z,7.57
2022-10-18T13:25:04.245Z,7.63
2022-10-18T13:28:02.554Z,6.53
2022-10-18T13:31:27.661Z,6.70
2022-10-18T13:33:54.895Z,6.00
2022-10-18T13:36:29.539Z,7.05
2022-10-18T13:38:57.592Z,7.22
2022-10-18T13:41:43.538Z,8.07
2022-10-18T13:44:33.268Z,7.30
2022-10-18T13:47:32.678Z,8.10
2022-10-18T13:50:17.250Z,7.82
2022-10-18T13:53:02.415Z,6.93
2022-10-18T13:55:44.655Z,7.85
2022-10-18T13:59:05.703Z,6.97
2022-10-18T14:02:10.316Z,6.75
2022-10-18T14:05:42.009Z,8.25
2022-10-18T14:08:52.292Z,7.77
2022-10-18T14:14:38.182Z,6.97
2022-10-18T14:17:29.990Z,8.23
2022-10-18T14:20:01.699Z,7.40
2022-10-18T14:22:46.563Z,8.35
2022-10-18T14:25:26.801Z,8.27
2022-10-18T14:28:27.342Z,8.40
2022-10-18T14:31:07.394Z,7.68
2022-10-18T14:33:57.912Z,8.00
2022-10-18T14:36:30.397Z,9.38
2022-10-18T14:39:03.695Z,7.85
2022-10-18T14:41:37.564Z,8.27
2022-10-18T14:44:19.289Z,8.68
2022-10-18T14:46:59.908Z,8.43
2022-10-18T14:49:27.219Z,8.32
2022-10-18T14:51:58.687Z,8.70
2022-10-18T14:54:36.830Z,9.32
2022-10-18T14:57:05.846Z,8.30
2022-10-18T14:59:52.014Z,8.05
2022-10-18T15:02:25.857Z,8.45
2022-10-18T15:05:16.007Z,8.90
2022-10-18T15:07:43.931Z,7.82
2022-10-18T15:10:26.797Z,8.73
2022-10-18T15:15:46.810Z,7.95
2022-10-18T15:18:23.986Z,8.68
2022-10-18T15:21:24.724Z,8.35
2022-10-18T15:23:54.143Z,7.93
2022-10-18T15:26:30.291Z,8.82
2022-10-18T15:29:01.458Z,8.85
2022-10-18T15:31:43.031Z,9.45
2022-10-18T15:34:26.120Z,8.43
2022-10-18T15:36:55.822Z,8.27
2022-10-18T15:39:31.007Z,9.32
2022-10-18T15:42:00.087Z,10.02
2022-10-18T15:44:34.644Z,9.90
2022-10-18T15:47:13.906Z,9.85
2022-10-18T15:49:51.444Z,9.77
2022-10-18T15:52:37.754Z,10.05
2022-10-18T15:58:16.957Z,8.98
2022-10-18T16:00:47.442Z,9.20
2022-10-18T16:06:12.325Z,10.43
2022-10-18T16:08:49.093Z,10.50
2022-10-18T16:11:22.994Z,11.20
2022-10-18T16:13:54.016Z,10.13
2022-10-18T16:16:26.727Z,10.40
2022-10-18T16:18:53.846Z,11.07
2022-10-18T16:21:24.028Z,11.80
2022-10-18T16:23:51.521Z,10.82
2022-10-18T16:26:20.076Z,11.27
2022-10-18T16:28:49.217Z,11.05
2022-10-18T16:31:26.312Z,10.93
2022-10-18T16:33:54.957Z,10.88
2022-10-18T16:36:29.316Z,11.50
2022-10-18T16:39:09.882Z,11.52
2022-10-18T16:41:41.640Z,12.25
2022-10-18T16:44:08.833Z,10.90
2022-10-18T16:46:39.254Z,11.50
2022-10-18T16:49:07.685Z,12.18
2022-10-18T16:51:34.682Z,10.93
2022-10-18T16:54:01.858Z,11.60
2022-10-18T16:56:34.208Z,11.80
2022-10-18T16:59:05.161Z,12.20
2022-10-18T17:01:32.162Z,12.65
2022-10-18T17:03:59.064Z,12.57
2022-10-18T17:06:29.732Z,12.68
2022-10-18T17:08:57.355Z,11.82
2022-10-18T17:11:27.527Z,12.57
2022-10-18T17:13:55.037Z,13.30
2022-10-18T17:19:20.397Z,14.15
2022-10-18T17:21:47.415Z,14.07
2022-10-18T17:24:20.704Z,15.98
2022-10-18T17:27:12.435Z,19.70
2022-10-18T17:29:40.881Z,20.08
2022-10-18T17:35:24.827Z,14.20
2022-10-18T17:38:16.574Z,14.30
2022-10-18T17:40:43.512Z,15.32
2022-10-18T17:43:13.191Z,15.70
2022-10-18T17:46:05.229Z,15.77
2022-10-18T17:48:32.144Z,15.23
2022-10-18T17:50:59.314Z,15.40
2022-10-18T17:53:30.736Z,15.93
2022-10-18T17:56:02.401Z,16.08
2022-10-18T17:58:30.953Z,15.25
2022-10-18T18:01:15.797Z,15.63
2022-10-18T18:03:47.804Z,15.23
2022-10-18T18:06:40.878Z,14.25
2022-10-18T18:09:11.622Z,14.55
2022-10-18T18:11:42.263Z,15.40
2022-10-18T18:14:11.193Z,13.98
2022-10-18T18:16:45.166Z,13.38
2022-10-18T18:19:17.499Z,14.23
2022-10-18T18:21:44.788Z,15.73
2022-10-18T18:24:13.971Z,15.23
2022-10-18T18:26:42.826Z,14.82
2022-10-18T18:29:12.538Z,15.18
2022-10-18T18:31:43.441Z,14.60
2022-10-18T18:34:11.564Z,14.10
2022-10-18T18:36:39.538Z,14.68
2022-10-18T18:39:07.255Z,14.43
2022-10-18T18:41:34.809Z,14.85
2022-10-18T18:44:04.959Z,15.27
2022-10-18T18:46:39.341Z,14.80
2022-10-18T18:49:07.839Z,13.82
2022-10-18T18:51:37.981Z,14.43
2022-10-18T18:54:06.087Z,13.73
2022-10-18T18:56:33.355Z,12.45
2022-10-18T18:59:00.697Z,14.65
2022-10-18T19:01:32.102Z,13.00
2022-10-18T19:04:00.260Z,12.88
2022-10-18T19:06:39.551Z,13.73
2022-10-18T19:09:19.717Z,12.90
2022-10-18T19:11:49.152Z,12.25
2022-10-18T19:14:16.713Z,11.23
2022-10-18T19:16:48.825Z,11.07
2022-10-18T19:19:19.943Z,11.18
2022-10-18T19:21:52.570Z,10.18
2022-10-18T19:24:21.720Z,9.43
2022-10-18T19:27:04.841Z,9.85
2022-10-18T19:29:38.144Z,8.65
2022-10-18T19:32:12.228Z,8.38
2022-10-18T19:34:39.585Z,7.55
2022-10-18T19:37:06.572Z,8.23
2022-10-18T19:39:35.161Z,7.60
2022-10-18T19:42:06.624Z,8.18
2022-10-18T19:44:35.974Z,7.10
2022-10-18T19:47:10.120Z,7.43
2022-10-18T19:49:38.777Z,8.00
2022-10-18T19:52:05.901Z,7.82
2022-10-18T19:54:57.936Z,7.25
2022-10-18T19:57:49.963Z,7.78
2022-10-18T20:03:10.462Z,7.18
2022-10-18T20:05:37.390Z,7.30
2022-10-18T20:08:04.408Z,7.40
2022-10-18T20:10:31.829Z,7.60
2022-10-18T20:12:59.191Z,6.40
2022-10-18T20:15:27.001Z,7.20
2022-10-18T20:17:54.198Z,7.20
2022-10-18T20:20:21.039Z,7.13
2022-10-18T20:22:48.127Z,6.95
2022-10-18T20:25:15.284Z,6.35
2022-10-18T20:27:42.079Z,6.82
2022-10-18T20:30:11.383Z,6.03
2022-10-18T20:32:38.651Z,6.28
2022-10-18T20:35:06.135Z,5.75
2022-10-18T20:37:33.938Z,6.05
2022-10-18T20:40:01.076Z,6.82
2022-10-18T20:42:27.954Z,6.55
2022-10-18T20:44:54.894Z,5.95
2022-10-18T20:47:22.009Z,5.20
2022-10-18T20:49:48.882Z,5.65
2022-10-18T20:52:16.107Z,6.00
2022-10-18T20:54:42.977Z,5.18
2022-10-18T20:57:09.980Z,5.78
2022-10-18T20:59:37.795Z,5.35
2022-10-18T21:02:04.671Z,4.85
2022-10-18T21:04:31.709Z,5.40
2022-10-18T21:07:00.405Z,5.15
2022-10-18T21:09:27.284Z,4.63
2022-10-18T21:11:54.612Z,5.45
2022-10-18T21:14:23.601Z,4.65
2022-10-18T21:16:52.347Z,4.15
2022-10-18T21:19:26.086Z,4.40
2022-10-18T21:21:57.239Z,5.55
2022-10-18T21:24:26.551Z,4.90
2022-10-18T21:26:53.582Z,4.95
2022-10-18T21:29:22.638Z,4.55
2022-10-18T21:31:53.869Z,4.38
2022-10-18T21:34:21.082Z,3.80
2022-10-18T21:36:48.732Z,4.10
2022-10-18T21:39:20.191Z,4.43
2022-10-18T21:41:47.521Z,4.53
2022-10-18T21:44:14.872Z,4.32
2022-10-18T21:46:46.856Z,4.47
2022-10-18T21:49:14.835Z,4.40
2022-10-18T21:51:42.780Z,3.95
2022-10-18T21:54:15.735Z,4.75
2022-10-18T21:56:43.186Z,3.53
2022-10-18T21:59:12.260Z,3.85
2022-10-18T22:01:40.725Z,3.92
2022-10-18T22:04:21.050Z,3.75
2022-10-18T22:06:48.309Z,3.75
2022-10-18T22:09:16.049Z,3.03
2022-10-18T22:11:48.019Z,4.00
2022-10-18T22:14:14.988Z,3.75
2022-10-18T22:16:42.267Z,3.70
2022-10-18T22:19:09.308Z,3.30
2022-10-18T22:21:36.293Z,3.58
2022-10-18T22:24:09.139Z,3.55
2022-10-18T22:26:39.346Z,4.07
2022-10-18T22:29:19.829Z,3.85
2022-10-18T22:31:53.386Z,4.22
2022-10-18T22:34:28.870Z,3.67
2022-10-18T22:39:47.746Z,3.17
2022-10-18T22:42:14.601Z,4.20
2022-10-18T22:47:33.016Z,3.05
2022-10-18T22:50:00.281Z,2.88
2022-10-18T22:52:27.085Z,2.88
2022-10-18T22:54:54.234Z,2.70
2022-10-18T22:57:21.096Z,3.50
2022-10-18T22:59:47.976Z,2.40
2022-10-18T23:02:15.068Z,2.70
2022-10-18T23:04:41.934Z,2.83
2022-10-18T23:07:08.893Z,2.78
2022-10-18T23:09:37.945Z,2.15
2022-10-18T23:12:04.828Z,2.17
2022-10-18T23:14:31.910Z,2.47
2022-10-18T23:16:59.093Z,2.60
2022-10-18T23:19:25.967Z,2.72
2022-10-18T23:21:53.140Z,2.20
2022-10-18T23:24:19.938Z,2.25
2022-10-18T23:26:50.735Z,2.35
2022-10-18T23:29:17.511Z,2.75
2022-10-18T23:31:44.574Z,3.42
2022-10-18T23:34:12.607Z,3.53
2022-10-18T23:36:39.535Z,2.40
2022-10-18T23:39:06.400Z,2.85
2022-10-18T23:41:36.946Z,2.70
2022-10-18T23:44:03.875Z,3.03
2022-10-18T23:46:30.692Z,2.88
2022-10-18T23:48:57.604Z,2.60
2022-10-18T23:51:24.400Z,2.97
2022-10-18T23:53:51.432Z,2.83
2022-10-18T23:56:19.140Z,2.45
2022-10-18T23:58:46.394Z,3.20
